sensor_id;sensor_type;location;lat;lon;timestamp;temperature;humidity
1568;DHT22;777;47.156;8.326;2023-06-22T00:00:54;20.40;99.90
1568;DHT22;777;47.156;8.326;2023-06-22T00:03:22;20.30;99.90
1568;DHT22;777;47.156;8.326;2023-06-22T00:05:50;20.40;99.90
1568;DHT22;777;47.156;8.326;2023-06-22T00:08:19;20.60;99.90
1568;DHT22;777;47.156;8.326;2023-06-22T00:10:46;20.60;99.90
1568;DHT22;777;47.156;8.326;2023-06-22T00:13:13;20.60;99.90
1568;DHT22;777;47.156;8.326;2023-06-22T00:15:42;20.60;99.90
1568;DHT22;777;47.156;8.326;2023-06-22T00:18:10;20.30;99.90
1568;DHT22;777;47.156;8.326;2023-06-22T00:20:37;20.20;99.90
1568;DHT22;777;47.156;8.326;2023-06-22T00:23:05;20.10;99.90
1568;DHT22;777;47.156;8.326;2023-06-22T00:25:35;20.10;99.90
1568;DHT22;777;47.156;8.326;2023-06-22T00:28:02;20.00;99.90
1568;DHT22;777;47.156;8.326;2023-06-22T00:30:30;20.00;99.90
1568;DHT22;777;47.156;8.326;2023-06-22T00:32:58;20.00;99.90
1568;DHT22;777;47.156;8.326;2023-06-22T00:35:25;19.80;99.90
1568;DHT22;777;47.156;8.326;2023-06-22T00:37:54;19.60;99.90
1568;DHT22;777;47.156;8.326;2023-06-22T00:40:26;19.30;99.90
1568;DHT22;777;47.156;8.326;2023-06-22T00:42:55;19.30;99.90
1568;DHT22;777;47.156;8.326;2023-06-22T00:45:22;19.30;99.90
1568;DHT22;777;47.156;8.326;2023-06-22T00:47:51;19.40;99.90
1568;DHT22;777;47.156;8.326;2023-06-22T00:50:20;19.40;99.90
1568;DHT22;777;47.156;8.326;2023-06-22T00:52:51;19.50;99.90
1568;DHT22;777;47.156;8.326;2023-06-22T00:55:19;19.50;99.90
1568;DHT22;777;47.156;8.326;2023-06-22T00:57:47;19.50;99.90
1568;DHT22;777;47.156;8.326;2023-06-22T01:00:16;19.40;99.90
1568;DHT22;777;47.156;8.326;2023-06-22T01:02:46;19.50;99.90
1568;DHT22;777;47.156;8.326;2023-06-22T01:05:18;19.60;99.90
1568;DHT22;777;47.156;8.326;2023-06-22T01:07:58;19.50;99.90
1568;DHT22;777;47.156;8.326;2023-06-22T01:10:34;19.40;99.90
1568;DHT22;777;47.156;8.326;2023-06-22T01:13:07;19.30;99.90
1568;DHT22;777;47.156;8.326;2023-06-22T01:15:44;19.40;99.90
1568;DHT22;777;47.156;8.326;2023-06-22T01:18:17;19.20;99.90
1568;DHT22;777;47.156;8.326;2023-06-22T01:20:44;19.20;99.90
1568;DHT22;777;47.156;8.326;2023-06-22T01:23:20;19.30;99.90
1568;DHT22;777;47.156;8.326;2023-06-22T01:25:56;19.30;99.90
1568;DHT22;777;47.156;8.326;2023-06-22T01:28:39;19.40;99.90
1568;DHT22;777;47.156;8.326;2023-06-22T01:31:10;19.40;99.90
1568;DHT22;777;47.156;8.326;2023-06-22T01:33:42;19.50;99.90
1568;DHT22;777;47.156;8.326;2023-06-22T01:36:09;19.50;99.90
1568;DHT22;777;47.156;8.326;2023-06-22T01:38:38;19.50;99.90
1568;DHT22;777;47.156;8.326;2023-06-22T01:41:06;19.50;99.90
1568;DHT22;777;47.156;8.326;2023-06-22T01:43:35;19.60;99.90
1568;DHT22;777;47.156;8.326;2023-06-22T01:46:03;19.70;99.90
1568;DHT22;777;47.156;8.326;2023-06-22T01:48:30;19.70;99.90
1568;DHT22;777;47.156;8.326;2023-06-22T01:50:58;19.80;99.90
1568;DHT22;777;47.156;8.326;2023-06-22T01:53:25;19.60;99.90
1568;DHT22;777;47.156;8.326;2023-06-22T01:55:52;19.60;99.90
1568;DHT22;777;47.156;8.326;2023-06-22T01:58:21;19.50;99.90
1568;DHT22;777;47.156;8.326;2023-06-22T02:00:53;19.50;99.90
1568;DHT22;777;47.156;8.326;2023-06-22T02:03:25;19.40;99.90
1568;DHT22;777;47.156;8.326;2023-06-22T02:05:58;19.50;99.90
1568;DHT22;777;47.156;8.326;2023-06-22T02:08:30;19.60;99.90
1568;DHT22;777;47.156;8.326;2023-06-22T02:10:59;19.60;99.90
1568;DHT22;777;47.156;8.326;2023-06-22T02:13:27;19.50;99.90
1568;DHT22;777;47.156;8.326;2023-06-22T02:15:56;19.40;99.90
1568;DHT22;777;47.156;8.326;2023-06-22T02:18:23;19.20;99.90
1568;DHT22;777;47.156;8.326;2023-06-22T02:20:51;19.20;99.90
1568;DHT22;777;47.156;8.326;2023-06-22T02:23:18;19.10;99.90
1568;DHT22;777;47.156;8.326;2023-06-22T02:25:45;18.90;99.90
1568;DHT22;777;47.156;8.326;2023-06-22T02:28:12;18.90;99.90
1568;DHT22;777;47.156;8.326;2023-06-22T02:30:39;19.00;99.90
1568;DHT22;777;47.156;8.326;2023-06-22T02:33:08;18.60;99.90
1568;DHT22;777;47.156;8.326;2023-06-22T02:35:35;18.70;99.90
1568;DHT22;777;47.156;8.326;2023-06-22T02:38:03;18.80;99.90
1568;DHT22;777;47.156;8.326;2023-06-22T02:40:31;18.60;99.90
1568;DHT22;777;47.156;8.326;2023-06-22T02:42:58;18.80;99.90
1568;DHT22;777;47.156;8.326;2023-06-22T02:45:28;18.50;99.90
1568;DHT22;777;47.156;8.326;2023-06-22T02:47:55;18.70;99.90
1568;DHT22;777;47.156;8.326;2023-06-22T02:50:24;18.80;99.90
1568;DHT22;777;47.156;8.326;2023-06-22T02:52:52;18.60;99.90
1568;DHT22;777;47.156;8.326;2023-06-22T02:55:19;18.50;99.90
1568;DHT22;777;47.156;8.326;2023-06-22T02:57:53;18.70;99.90
1568;DHT22;777;47.156;8.326;2023-06-22T03:00:21;18.40;99.90
1568;DHT22;777;47.156;8.326;2023-06-22T03:02:49;18.40;99.90
1568;DHT22;777;47.156;8.326;2023-06-22T03:05:17;18.50;99.90
1568;DHT22;777;47.156;8.326;2023-06-22T03:07:46;18.60;99.90
1568;DHT22;777;47.156;8.326;2023-06-22T03:10:15;18.70;99.90
1568;DHT22;777;47.156;8.326;2023-06-22T03:12:42;18.70;99.90
1568;DHT22;777;47.156;8.326;2023-06-22T03:15:11;18.70;99.90
1568;DHT22;777;47.156;8.326;2023-06-22T03:17:40;18.60;99.90
1568;DHT22;777;47.156;8.326;2023-06-22T03:20:08;18.40;99.90
1568;DHT22;777;47.156;8.326;2023-06-22T03:22:37;18.20;99.90
1568;DHT22;777;47.156;8.326;2023-06-22T03:25:07;18.10;99.90
1568;DHT22;777;47.156;8.326;2023-06-22T03:27:40;18.10;99.90
1568;DHT22;777;47.156;8.326;2023-06-22T03:30:09;18.00;99.90
1568;DHT22;777;47.156;8.326;2023-06-22T03:32:36;18.10;99.90
1568;DHT22;777;47.156;8.326;2023-06-22T03:35:06;18.30;99.90
1568;DHT22;777;47.156;8.326;2023-06-22T03:37:35;18.40;99.90
1568;DHT22;777;47.156;8.326;2023-06-22T03:40:03;18.40;99.90
1568;DHT22;777;47.156;8.326;2023-06-22T03:42:33;18.40;99.90
1568;DHT22;777;47.156;8.326;2023-06-22T03:45:02;18.40;99.90
1568;DHT22;777;47.156;8.326;2023-06-22T03:47:29;18.10;99.90
1568;DHT22;777;47.156;8.326;2023-06-22T03:49:57;18.00;99.90
1568;DHT22;777;47.156;8.326;2023-06-22T03:52:25;17.90;99.90
1568;DHT22;777;47.156;8.326;2023-06-22T03:54:52;18.00;99.90
1568;DHT22;777;47.156;8.326;2023-06-22T03:57:19;18.20;99.90
1568;DHT22;777;47.156;8.326;2023-06-22T03:59:48;18.00;99.90
1568;DHT22;777;47.156;8.326;2023-06-22T04:02:16;18.20;99.90
1568;DHT22;777;47.156;8.326;2023-06-22T04:04:43;18.20;99.90
1568;DHT22;777;47.156;8.326;2023-06-22T04:07:10;18.30;99.90
1568;DHT22;777;47.156;8.326;2023-06-22T04:09:37;18.30;99.90
1568;DHT22;777;47.156;8.326;2023-06-22T04:12:05;18.40;99.90
1568;DHT22;777;47.156;8.326;2023-06-22T04:14:32;18.60;99.90
1568;DHT22;777;47.156;8.326;2023-06-22T04:17:01;18.80;99.90
1568;DHT22;777;47.156;8.326;2023-06-22T04:19:28;18.90;99.90
1568;DHT22;777;47.156;8.326;2023-06-22T04:21:55;19.00;99.90
1568;DHT22;777;47.156;8.326;2023-06-22T04:24:22;18.90;99.90
1568;DHT22;777;47.156;8.326;2023-06-22T04:26:49;18.80;99.90
1568;DHT22;777;47.156;8.326;2023-06-22T04:29:19;18.60;99.90
1568;DHT22;777;47.156;8.326;2023-06-22T04:31:46;19.00;99.90
1568;DHT22;777;47.156;8.326;2023-06-22T04:34:17;19.50;99.90
1568;DHT22;777;47.156;8.326;2023-06-22T04:36:44;20.00;99.90
1568;DHT22;777;47.156;8.326;2023-06-22T04:39:11;20.50;99.90
1568;DHT22;777;47.156;8.326;2023-06-22T04:41:39;20.90;99.90
1568;DHT22;777;47.156;8.326;2023-06-22T04:44:10;21.00;99.90
1568;DHT22;777;47.156;8.326;2023-06-22T04:46:37;20.90;99.90
1568;DHT22;777;47.156;8.326;2023-06-22T04:49:06;20.30;99.90
1568;DHT22;777;47.156;8.326;2023-06-22T04:51:41;20.30;99.90
1568;DHT22;777;47.156;8.326;2023-06-22T04:54:09;20.20;99.90
1568;DHT22;777;47.156;8.326;2023-06-22T04:56:36;20.30;99.90
1568;DHT22;777;47.156;8.326;2023-06-22T04:59:06;20.40;99.90
1568;DHT22;777;47.156;8.326;2023-06-22T05:01:33;20.60;99.90
1568;DHT22;777;47.156;8.326;2023-06-22T05:04:01;20.70;99.90
1568;DHT22;777;47.156;8.326;2023-06-22T05:06:29;20.70;99.90
1568;DHT22;777;47.156;8.326;2023-06-22T05:08:57;20.90;99.90
1568;DHT22;777;47.156;8.326;2023-06-22T05:11:25;21.00;99.90
1568;DHT22;777;47.156;8.326;2023-06-22T05:13:52;21.00;99.90
1568;DHT22;777;47.156;8.326;2023-06-22T05:16:20;21.20;99.90
1568;DHT22;777;47.156;8.326;2023-06-22T05:18:51;21.30;99.90
1568;DHT22;777;47.156;8.326;2023-06-22T05:21:21;21.40;99.90
1568;DHT22;777;47.156;8.326;2023-06-22T05:23:49;21.50;99.90
1568;DHT22;777;47.156;8.326;2023-06-22T05:26:18;21.70;99.90
1568;DHT22;777;47.156;8.326;2023-06-22T05:28:45;21.70;99.90
1568;DHT22;777;47.156;8.326;2023-06-22T05:31:13;21.80;99.90
1568;DHT22;777;47.156;8.326;2023-06-22T05:33:41;21.90;99.90
1568;DHT22;777;47.156;8.326;2023-06-22T05:36:08;22.00;99.90
1568;DHT22;777;47.156;8.326;2023-06-22T05:38:35;22.00;99.90
1568;DHT22;777;47.156;8.326;2023-06-22T05:41:02;22.00;99.90
1568;DHT22;777;47.156;8.326;2023-06-22T05:43:31;22.10;99.90
1568;DHT22;777;47.156;8.326;2023-06-22T05:45:59;22.30;99.90
1568;DHT22;777;47.156;8.326;2023-06-22T05:48:26;22.30;99.90
1568;DHT22;777;47.156;8.326;2023-06-22T05:50:53;22.50;99.90
1568;DHT22;777;47.156;8.326;2023-06-22T05:53:20;22.70;99.90
1568;DHT22;777;47.156;8.326;2023-06-22T05:55:47;22.80;99.90
1568;DHT22;777;47.156;8.326;2023-06-22T05:58:14;23.00;99.90
1568;DHT22;777;47.156;8.326;2023-06-22T06:00:43;22.70;99.90
1568;DHT22;777;47.156;8.326;2023-06-22T06:03:10;22.50;99.90
1568;DHT22;777;47.156;8.326;2023-06-22T06:05:37;22.50;99.90
1568;DHT22;777;47.156;8.326;2023-06-22T06:08:05;22.40;99.90
1568;DHT22;777;47.156;8.326;2023-06-22T06:10:33;22.60;99.90
1568;DHT22;777;47.156;8.326;2023-06-22T06:13:00;22.70;99.90
1568;DHT22;777;47.156;8.326;2023-06-22T06:15:30;22.80;99.90
1568;DHT22;777;47.156;8.326;2023-06-22T06:17:58;23.00;99.90
1568;DHT22;777;47.156;8.326;2023-06-22T06:20:26;23.20;99.90
1568;DHT22;777;47.156;8.326;2023-06-22T06:22:54;23.40;99.90
1568;DHT22;777;47.156;8.326;2023-06-22T06:25:22;23.60;99.90
1568;DHT22;777;47.156;8.326;2023-06-22T06:27:50;23.90;99.90
1568;DHT22;777;47.156;8.326;2023-06-22T06:30:20;24.00;99.90
1568;DHT22;777;47.156;8.326;2023-06-22T06:32:47;24.30;99.90
1568;DHT22;777;47.156;8.326;2023-06-22T06:35:16;24.60;99.90
1568;DHT22;777;47.156;8.326;2023-06-22T06:37:44;24.80;99.90
1568;DHT22;777;47.156;8.326;2023-06-22T06:40:12;24.90;99.90
1568;DHT22;777;47.156;8.326;2023-06-22T06:42:40;25.30;99.90
1568;DHT22;777;47.156;8.326;2023-06-22T06:45:10;25.40;99.90
1568;DHT22;777;47.156;8.326;2023-06-22T06:47:37;25.60;99.90
1568;DHT22;777;47.156;8.326;2023-06-22T06:50:06;25.90;99.90
1568;DHT22;777;47.156;8.326;2023-06-22T06:52:35;25.90;99.90
1568;DHT22;777;47.156;8.326;2023-06-22T06:55:02;25.80;99.90
1568;DHT22;777;47.156;8.326;2023-06-22T06:57:33;25.50;99.90
1568;DHT22;777;47.156;8.326;2023-06-22T07:00:03;25.20;99.90
1568;DHT22;777;47.156;8.326;2023-06-22T07:02:35;24.90;99.90
1568;DHT22;777;47.156;8.326;2023-06-22T07:05:03;24.30;99.90
1568;DHT22;777;47.156;8.326;2023-06-22T07:07:30;23.70;99.90
1568;DHT22;777;47.156;8.326;2023-06-22T07:09:58;23.10;99.90
1568;DHT22;777;47.156;8.326;2023-06-22T07:12:25;22.80;99.90
1568;DHT22;777;47.156;8.326;2023-06-22T07:14:52;22.60;99.90
1568;DHT22;777;47.156;8.326;2023-06-22T07:17:19;22.70;99.90
1568;DHT22;777;47.156;8.326;2023-06-22T07:19:46;22.70;99.90
1568;DHT22;777;47.156;8.326;2023-06-22T07:22:13;22.70;99.90
1568;DHT22;777;47.156;8.326;2023-06-22T07:24:40;22.80;99.90
1568;DHT22;777;47.156;8.326;2023-06-22T07:27:09;23.20;99.90
1568;DHT22;777;47.156;8.326;2023-06-22T07:29:38;23.50;99.90
1568;DHT22;777;47.156;8.326;2023-06-22T07:32:06;23.70;99.90
1568;DHT22;777;47.156;8.326;2023-06-22T07:34:34;23.90;99.90
1568;DHT22;777;47.156;8.326;2023-06-22T07:37:01;24.10;99.90
1568;DHT22;777;47.156;8.326;2023-06-22T07:39:29;24.30;99.90
1568;DHT22;777;47.156;8.326;2023-06-22T07:41:55;24.90;99.90
1568;DHT22;777;47.156;8.326;2023-06-22T07:44:24;25.30;99.90
1568;DHT22;777;47.156;8.326;2023-06-22T07:46:51;25.70;99.90
1568;DHT22;777;47.156;8.326;2023-06-22T07:49:18;26.30;99.90
1568;DHT22;777;47.156;8.326;2023-06-22T07:51:45;26.60;99.90
1568;DHT22;777;47.156;8.326;2023-06-22T07:54:12;27.00;99.90
1568;DHT22;777;47.156;8.326;2023-06-22T07:56:41;27.10;99.90
1568;DHT22;777;47.156;8.326;2023-06-22T07:59:08;26.90;99.90
1568;DHT22;777;47.156;8.326;2023-06-22T08:01:37;26.90;99.90
1568;DHT22;777;47.156;8.326;2023-06-22T08:04:04;27.30;99.90
1568;DHT22;777;47.156;8.326;2023-06-22T08:06:32;27.70;99.90
1568;DHT22;777;47.156;8.326;2023-06-22T08:08:59;27.80;99.90
1568;DHT22;777;47.156;8.326;2023-06-22T08:11:26;28.10;99.90
1568;DHT22;777;47.156;8.326;2023-06-22T08:13:53;28.30;99.90
1568;DHT22;777;47.156;8.326;2023-06-22T08:16:21;28.50;99.90
1568;DHT22;777;47.156;8.326;2023-06-22T08:18:50;28.60;99.90
1568;DHT22;777;47.156;8.326;2023-06-22T08:21:17;28.70;99.90
1568;DHT22;777;47.156;8.326;2023-06-22T08:23:44;29.00;99.90
1568;DHT22;777;47.156;8.326;2023-06-22T08:26:11;29.20;99.90
1568;DHT22;777;47.156;8.326;2023-06-22T08:28:38;29.30;99.90
1568;DHT22;777;47.156;8.326;2023-06-22T08:31:05;29.30;99.90
1568;DHT22;777;47.156;8.326;2023-06-22T08:33:32;28.80;99.90
1568;DHT22;777;47.156;8.326;2023-06-22T08:36:00;28.20;99.90
1568;DHT22;777;47.156;8.326;2023-06-22T08:38:27;28.50;99.90
1568;DHT22;777;47.156;8.326;2023-06-22T08:40:54;28.40;99.90
1568;DHT22;777;47.156;8.326;2023-06-22T08:43:21;28.30;99.90
1568;DHT22;777;47.156;8.326;2023-06-22T08:45:48;28.10;99.90
1568;DHT22;777;47.156;8.326;2023-06-22T08:48:15;28.20;99.90
1568;DHT22;777;47.156;8.326;2023-06-22T08:50:42;27.90;99.90
1568;DHT22;777;47.156;8.326;2023-06-22T08:53:10;27.80;99.90
1568;DHT22;777;47.156;8.326;2023-06-22T08:55:37;27.70;99.90
1568;DHT22;777;47.156;8.326;2023-06-22T08:58:04;28.10;99.90
1568;DHT22;777;47.156;8.326;2023-06-22T09:00:32;28.10;99.90
1568;DHT22;777;47.156;8.326;2023-06-22T09:03:00;28.40;99.90
1568;DHT22;777;47.156;8.326;2023-06-22T09:05:27;27.60;99.90
1568;DHT22;777;47.156;8.326;2023-06-22T09:07:56;27.40;99.90
1568;DHT22;777;47.156;8.326;2023-06-22T09:10:25;27.30;99.90
1568;DHT22;777;47.156;8.326;2023-06-22T09:12:52;28.00;99.90
1568;DHT22;777;47.156;8.326;2023-06-22T09:15:20;27.80;99.90
1568;DHT22;777;47.156;8.326;2023-06-22T09:17:47;27.20;99.90
1568;DHT22;777;47.156;8.326;2023-06-22T09:20:14;27.00;99.90
1568;DHT22;777;47.156;8.326;2023-06-22T09:22:41;27.10;99.90
1568;DHT22;777;47.156;8.326;2023-06-22T09:25:09;27.10;99.90
1568;DHT22;777;47.156;8.326;2023-06-22T09:27:37;27.10;99.90
1568;DHT22;777;47.156;8.326;2023-06-22T09:30:05;26.60;99.90
1568;DHT22;777;47.156;8.326;2023-06-22T09:32:33;27.10;99.90
1568;DHT22;777;47.156;8.326;2023-06-22T09:35:03;26.70;99.90
1568;DHT22;777;47.156;8.326;2023-06-22T09:37:32;27.20;99.90
1568;DHT22;777;47.156;8.326;2023-06-22T09:39:59;27.20;99.90
1568;DHT22;777;47.156;8.326;2023-06-22T09:42:26;27.80;99.90
1568;DHT22;777;47.156;8.326;2023-06-22T09:44:54;28.20;99.90
1568;DHT22;777;47.156;8.326;2023-06-22T09:47:21;28.70;99.90
1568;DHT22;777;47.156;8.326;2023-06-22T09:49:48;28.90;99.90
1568;DHT22;777;47.156;8.326;2023-06-22T09:52:15;28.50;99.90
1568;DHT22;777;47.156;8.326;2023-06-22T09:54:42;28.20;99.90
1568;DHT22;777;47.156;8.326;2023-06-22T09:57:09;28.40;99.90
1568;DHT22;777;47.156;8.326;2023-06-22T09:59:36;27.50;99.90
1568;DHT22;777;47.156;8.326;2023-06-22T10:02:05;27.00;99.90
1568;DHT22;777;47.156;8.326;2023-06-22T10:04:33;27.10;99.90
1568;DHT22;777;47.156;8.326;2023-06-22T10:07:01;27.10;99.90
1568;DHT22;777;47.156;8.326;2023-06-22T10:09:28;27.30;99.90
1568;DHT22;777;47.156;8.326;2023-06-22T10:11:56;27.70;99.90
1568;DHT22;777;47.156;8.326;2023-06-22T10:14:23;28.00;99.90
1568;DHT22;777;47.156;8.326;2023-06-22T10:16:52;28.20;99.90
1568;DHT22;777;47.156;8.326;2023-06-22T10:19:21;28.00;99.90
1568;DHT22;777;47.156;8.326;2023-06-22T10:21:48;27.70;99.90
1568;DHT22;777;47.156;8.326;2023-06-22T10:24:15;28.40;99.90
1568;DHT22;777;47.156;8.326;2023-06-22T10:26:41;29.20;99.90
1568;DHT22;777;47.156;8.326;2023-06-22T10:29:08;29.60;99.90
1568;DHT22;777;47.156;8.326;2023-06-22T10:31:35;29.60;99.90
1568;DHT22;777;47.156;8.326;2023-06-22T10:34:02;29.70;99.90
1568;DHT22;777;47.156;8.326;2023-06-22T10:36:31;30.40;99.90
1568;DHT22;777;47.156;8.326;2023-06-22T10:38:58;30.90;99.90
1568;DHT22;777;47.156;8.326;2023-06-22T10:41:27;31.30;99.90
1568;DHT22;777;47.156;8.326;2023-06-22T10:43:55;31.50;99.90
1568;DHT22;777;47.156;8.326;2023-06-22T10:46:24;31.50;99.90
1568;DHT22;777;47.156;8.326;2023-06-22T10:48:51;31.60;99.90
1568;DHT22;777;47.156;8.326;2023-06-22T10:51:20;31.20;99.90
1568;DHT22;777;47.156;8.326;2023-06-22T10:53:49;31.00;99.90
1568;DHT22;777;47.156;8.326;2023-06-22T10:56:17;30.90;99.90
1568;DHT22;777;47.156;8.326;2023-06-22T10:58:45;30.90;99.90
1568;DHT22;777;47.156;8.326;2023-06-22T11:01:12;30.50;99.90
1568;DHT22;777;47.156;8.326;2023-06-22T11:03:39;30.40;99.90
1568;DHT22;777;47.156;8.326;2023-06-22T11:06:06;30.30;99.90
1568;DHT22;777;47.156;8.326;2023-06-22T11:08:33;30.10;99.90
1568;DHT22;777;47.156;8.326;2023-06-22T11:11:01;30.00;99.90
1568;DHT22;777;47.156;8.326;2023-06-22T11:13:28;29.80;99.90
1568;DHT22;777;47.156;8.326;2023-06-22T11:15:55;29.60;99.90
1568;DHT22;777;47.156;8.326;2023-06-22T11:18:22;29.70;99.90
1568;DHT22;777;47.156;8.326;2023-06-22T11:20:49;29.60;99.90
1568;DHT22;777;47.156;8.326;2023-06-22T11:23:16;29.90;99.90
1568;DHT22;777;47.156;8.326;2023-06-22T11:25:43;29.70;99.90
1568;DHT22;777;47.156;8.326;2023-06-22T11:28:11;29.70;99.90
1568;DHT22;777;47.156;8.326;2023-06-22T11:30:38;29.60;99.90
1568;DHT22;777;47.156;8.326;2023-06-22T11:33:05;29.60;99.90
1568;DHT22;777;47.156;8.326;2023-06-22T11:35:32;29.70;99.90
1568;DHT22;777;47.156;8.326;2023-06-22T11:37:59;29.70;99.90
1568;DHT22;777;47.156;8.326;2023-06-22T11:40:27;29.70;99.90
1568;DHT22;777;47.156;8.326;2023-06-22T11:42:55;29.60;99.90
1568;DHT22;777;47.156;8.326;2023-06-22T11:45:23;29.60;99.90
1568;DHT22;777;47.156;8.326;2023-06-22T11:47:51;29.60;99.90
1568;DHT22;777;47.156;8.326;2023-06-22T11:50:18;29.90;99.90
1568;DHT22;777;47.156;8.326;2023-06-22T11:52:45;30.10;99.90
1568;DHT22;777;47.156;8.326;2023-06-22T11:55:12;30.60;99.90
1568;DHT22;777;47.156;8.326;2023-06-22T11:57:53;30.80;99.90
1568;DHT22;777;47.156;8.326;2023-06-22T12:00:22;31.20;99.90
1568;DHT22;777;47.156;8.326;2023-06-22T12:02:49;31.60;99.90
1568;DHT22;777;47.156;8.326;2023-06-22T12:05:18;31.70;99.90
1568;DHT22;777;47.156;8.326;2023-06-22T12:07:46;32.10;99.90
1568;DHT22;777;47.156;8.326;2023-06-22T12:10:14;32.40;99.90
1568;DHT22;777;47.156;8.326;2023-06-22T12:12:42;32.60;99.90
1568;DHT22;777;47.156;8.326;2023-06-22T12:15:10;32.50;99.90
1568;DHT22;777;47.156;8.326;2023-06-22T12:17:41;32.50;99.90
1568;DHT22;777;47.156;8.326;2023-06-22T12:20:09;32.10;99.90
1568;DHT22;777;47.156;8.326;2023-06-22T12:22:36;32.10;99.90
1568;DHT22;777;47.156;8.326;2023-06-22T12:25:05;32.10;99.90
1568;DHT22;777;47.156;8.326;2023-06-22T12:27:32;32.40;99.90
1568;DHT22;777;47.156;8.326;2023-06-22T12:29:59;32.80;99.90
1568;DHT22;777;47.156;8.326;2023-06-22T12:32:26;33.30;99.90
1568;DHT22;777;47.156;8.326;2023-06-22T12:34:54;32.80;99.90
1568;DHT22;777;47.156;8.326;2023-06-22T12:37:21;32.30;99.90
1568;DHT22;777;47.156;8.326;2023-06-22T12:39:48;31.70;99.90
1568;DHT22;777;47.156;8.326;2023-06-22T12:42:16;31.40;99.90
1568;DHT22;777;47.156;8.326;2023-06-22T12:44:43;31.40;99.90
1568;DHT22;777;47.156;8.326;2023-06-22T12:47:10;31.50;99.90
1568;DHT22;777;47.156;8.326;2023-06-22T12:49:39;31.70;99.90
1568;DHT22;777;47.156;8.326;2023-06-22T12:52:10;31.90;99.90
1568;DHT22;777;47.156;8.326;2023-06-22T12:54:37;31.60;99.90
1568;DHT22;777;47.156;8.326;2023-06-22T12:57:04;31.40;99.90
1568;DHT22;777;47.156;8.326;2023-06-22T12:59:32;31.50;99.90
1568;DHT22;777;47.156;8.326;2023-06-22T13:01:59;31.30;99.90
1568;DHT22;777;47.156;8.326;2023-06-22T13:04:27;31.60;99.90
1568;DHT22;777;47.156;8.326;2023-06-22T13:06:54;31.60;99.90
1568;DHT22;777;47.156;8.326;2023-06-22T13:09:22;31.00;99.90
1568;DHT22;777;47.156;8.326;2023-06-22T13:11:49;31.10;99.90
1568;DHT22;777;47.156;8.326;2023-06-22T13:14:17;31.10;99.90
1568;DHT22;777;47.156;8.326;2023-06-22T13:16:44;30.90;99.90
1568;DHT22;777;47.156;8.326;2023-06-22T13:19:13;30.20;99.90
1568;DHT22;777;47.156;8.326;2023-06-22T13:21:40;29.80;99.90
1568;DHT22;777;47.156;8.326;2023-06-22T13:24:07;29.40;99.90
1568;DHT22;777;47.156;8.326;2023-06-22T13:26:35;29.30;99.90
1568;DHT22;777;47.156;8.326;2023-06-22T13:31:36;28.90;99.90
1568;DHT22;777;47.156;8.326;2023-06-22T13:34:03;28.00;99.90
1568;DHT22;777;47.156;8.326;2023-06-22T13:36:32;27.40;99.90
1568;DHT22;777;47.156;8.326;2023-06-22T13:38:59;27.00;99.90
1568;DHT22;777;47.156;8.326;2023-06-22T13:41:26;26.70;99.90
1568;DHT22;777;47.156;8.326;2023-06-22T13:43:56;26.50;99.90
1568;DHT22;777;47.156;8.326;2023-06-22T13:46:23;26.30;99.90
1568;DHT22;777;47.156;8.326;2023-06-22T13:48:50;26.20;99.90
1568;DHT22;777;47.156;8.326;2023-06-22T13:51:18;25.80;99.90
1568;DHT22;777;47.156;8.326;2023-06-22T13:53:45;25.40;99.90
1568;DHT22;777;47.156;8.326;2023-06-22T13:56:13;25.10;99.90
1568;DHT22;777;47.156;8.326;2023-06-22T13:58:40;25.00;99.90
1568;DHT22;777;47.156;8.326;2023-06-22T14:01:09;24.10;99.90
1568;DHT22;777;47.156;8.326;2023-06-22T14:03:36;21.20;99.90
1568;DHT22;777;47.156;8.326;2023-06-22T14:06:03;20.10;99.90
1568;DHT22;777;47.156;8.326;2023-06-22T14:08:31;19.60;99.90
1568;DHT22;777;47.156;8.326;2023-06-22T14:10:58;19.70;99.90
1568;DHT22;777;47.156;8.326;2023-06-22T14:13:25;20.00;99.90
1568;DHT22;777;47.156;8.326;2023-06-22T14:15:51;20.40;99.90
1568;DHT22;777;47.156;8.326;2023-06-22T14:18:21;21.00;99.90
1568;DHT22;777;47.156;8.326;2023-06-22T14:20:49;21.80;99.90
1568;DHT22;777;47.156;8.326;2023-06-22T14:23:15;22.80;99.90
1568;DHT22;777;47.156;8.326;2023-06-22T14:25:43;22.90;99.90
1568;DHT22;777;47.156;8.326;2023-06-22T14:28:10;22.90;99.90
1568;DHT22;777;47.156;8.326;2023-06-22T14:30:37;22.50;99.90
1568;DHT22;777;47.156;8.326;2023-06-22T14:33:06;23.10;99.90
1568;DHT22;777;47.156;8.326;2023-06-22T14:35:34;24.00;99.90
1568;DHT22;777;47.156;8.326;2023-06-22T14:38:01;25.10;99.90
1568;DHT22;777;47.156;8.326;2023-06-22T14:40:28;26.30;99.90
1568;DHT22;777;47.156;8.326;2023-06-22T14:42:56;27.80;99.90
1568;DHT22;777;47.156;8.326;2023-06-22T14:45:23;28.50;99.90
1568;DHT22;777;47.156;8.326;2023-06-22T14:47:50;29.30;99.90
1568;DHT22;777;47.156;8.326;2023-06-22T14:50:17;29.10;99.90
1568;DHT22;777;47.156;8.326;2023-06-22T14:52:46;28.80;99.90
1568;DHT22;777;47.156;8.326;2023-06-22T14:55:13;28.00;99.90
1568;DHT22;777;47.156;8.326;2023-06-22T14:57:40;27.60;99.90
1568;DHT22;777;47.156;8.326;2023-06-22T15:00:07;27.30;99.90
1568;DHT22;777;47.156;8.326;2023-06-22T15:02:34;27.00;99.90
1568;DHT22;777;47.156;8.326;2023-06-22T15:05:01;26.70;99.90
1568;DHT22;777;47.156;8.326;2023-06-22T15:07:29;26.50;99.90
1568;DHT22;777;47.156;8.326;2023-06-22T15:09:57;26.50;99.90
1568;DHT22;777;47.156;8.326;2023-06-22T15:12:24;26.30;99.90
1568;DHT22;777;47.156;8.326;2023-06-22T15:14:51;25.90;99.90
1568;DHT22;777;47.156;8.326;2023-06-22T15:17:18;25.50;99.90
1568;DHT22;777;47.156;8.326;2023-06-22T15:19:45;25.30;99.90
1568;DHT22;777;47.156;8.326;2023-06-22T15:22:12;25.10;99.90
1568;DHT22;777;47.156;8.326;2023-06-22T15:24:39;25.10;99.90
1568;DHT22;777;47.156;8.326;2023-06-22T15:27:07;25.10;99.90
1568;DHT22;777;47.156;8.326;2023-06-22T15:29:38;25.10;99.90
1568;DHT22;777;47.156;8.326;2023-06-22T15:32:06;25.00;99.90
1568;DHT22;777;47.156;8.326;2023-06-22T15:34:33;25.00;99.90
1568;DHT22;777;47.156;8.326;2023-06-22T15:37:00;24.90;99.90
1568;DHT22;777;47.156;8.326;2023-06-22T15:39:27;24.80;99.90
1568;DHT22;777;47.156;8.326;2023-06-22T15:41:54;24.60;99.90
1568;DHT22;777;47.156;8.326;2023-06-22T15:44:22;24.40;99.90
1568;DHT22;777;47.156;8.326;2023-06-22T15:46:50;24.20;99.90
1568;DHT22;777;47.156;8.326;2023-06-22T15:49:17;23.70;99.90
1568;DHT22;777;47.156;8.326;2023-06-22T15:51:45;23.50;99.90
1568;DHT22;777;47.156;8.326;2023-06-22T15:54:12;23.40;99.90
1568;DHT22;777;47.156;8.326;2023-06-22T15:56:39;23.30;99.90
1568;DHT22;777;47.156;8.326;2023-06-22T15:59:06;23.30;99.90
1568;DHT22;777;47.156;8.326;2023-06-22T16:01:34;23.10;99.90
1568;DHT22;777;47.156;8.326;2023-06-22T16:04:01;23.00;99.90
1568;DHT22;777;47.156;8.326;2023-06-22T16:06:28;22.50;99.90
1568;DHT22;777;47.156;8.326;2023-06-22T16:08:55;21.40;99.90
1568;DHT22;777;47.156;8.326;2023-06-22T16:11:22;20.20;99.90
1568;DHT22;777;47.156;8.326;2023-06-22T16:13:49;19.40;99.90
1568;DHT22;777;47.156;8.326;2023-06-22T16:16:16;18.60;99.90
1568;DHT22;777;47.156;8.326;2023-06-22T16:18:45;18.50;99.90
1568;DHT22;777;47.156;8.326;2023-06-22T16:21:12;18.10;99.90
1568;DHT22;777;47.156;8.326;2023-06-22T16:23:39;18.20;99.90